Terminal Aerodrome Forecast
Issued by NWS Charleston, WV

Home | Current Version | Previous Version | Text Only | Print | Product List | Glossary On
Versions: 1 2 3 4 5 6 7 8 9 10 11 12 13 14 15 16 17 18 19 20 21 22 23 24 25
915
FTUS41 KRLX 010232 AAA
TAFHTS
TAF AMD
KHTS 010232Z 0103/0124 19007KT P6SM SCT250
     FM010400 18010KT P6SM SCT100 BKN200
     FM011200 20011G16KT P6SM BKN080
     FM011400 21013G23KT 3SM TSRA SCT025 OVC035CB
     FM011700 23014G25KT P6SM BKN060=

USA.gov is the U.S. government's official web portal to all federal, state and local government web resources and services.